sensor_id;sensor_type;location;lat;lon;timestamp;P1;durP1;ratioP1;P2;durP2;ratioP2
62582;SDS011;48641;51.676;5.808;2023-03-04T01:08:38;4.78;;;1.67;;
62582;SDS011;48641;51.676;5.808;2023-03-04T01:11:04;4.32;;;1.58;;
62582;SDS011;48641;51.676;5.808;2023-03-04T01:13:30;4.72;;;1.67;;
62582;SDS011;48641;51.676;5.808;2023-03-04T01:26:14;5.10;;;1.48;;
62582;SDS011;48641;51.676;5.808;2023-03-04T01:28:39;4.97;;;1.70;;
62582;SDS011;48641;51.676;5.808;2023-03-04T02:31:26;4.45;;;1.40;;
62582;SDS011;48641;51.676;5.808;2023-03-04T02:34:09;4.75;;;1.40;;
62582;SDS011;48641;51.676;5.808;2023-03-04T02:36:38;3.72;;;1.35;;
62582;SDS011;48641;51.676;5.808;2023-03-04T02:39:50;5.68;;;1.50;;
62582;SDS011;48641;51.676;5.808;2023-03-04T02:42:03;2.90;;;1.15;;
62582;SDS011;48641;51.676;5.808;2023-03-04T02:44:29;4.10;;;1.27;;
62582;SDS011;48641;51.676;5.808;2023-03-04T02:47:12;3.65;;;1.58;;
62582;SDS011;48641;51.676;5.808;2023-03-04T02:49:39;5.88;;;1.70;;
62582;SDS011;48641;51.676;5.808;2023-03-04T02:52:06;2.90;;;1.20;;
62582;SDS011;48641;51.676;5.808;2023-03-04T02:54:34;5.55;;;1.65;;
62582;SDS011;48641;51.676;5.808;2023-03-04T02:57:02;3.40;;;1.40;;
62582;SDS011;48641;51.676;5.808;2023-03-04T02:59:30;3.92;;;1.38;;
62582;SDS011;48641;51.676;5.808;2023-03-04T03:01:56;2.88;;;1.30;;
62582;SDS011;48641;51.676;5.808;2023-03-04T03:04:22;4.93;;;1.40;;
62582;SDS011;48641;51.676;5.808;2023-03-04T03:06:49;4.68;;;1.38;;
62582;SDS011;48641;51.676;5.808;2023-03-04T03:09:15;3.35;;;1.35;;
62582;SDS011;48641;51.676;5.808;2023-03-04T03:11:41;3.92;;;1.30;;
62582;SDS011;48641;51.676;5.808;2023-03-04T03:14:06;4.00;;;1.23;;
62582;SDS011;48641;51.676;5.808;2023-03-04T03:16:32;4.35;;;1.25;;
62582;SDS011;48641;51.676;5.808;2023-03-04T03:18:58;5.00;;;1.60;;
62582;SDS011;48641;51.676;5.808;2023-03-04T03:21:24;2.95;;;1.20;;
62582;SDS011;48641;51.676;5.808;2023-03-04T03:23:49;2.90;;;1.10;;
62582;SDS011;48641;51.676;5.808;2023-03-04T03:26:15;3.28;;;1.27;;
62582;SDS011;48641;51.676;5.808;2023-03-04T03:28:41;4.25;;;1.23;;
62582;SDS011;48641;51.676;5.808;2023-03-04T03:31:07;4.28;;;1.42;;
62582;SDS011;48641;51.676;5.808;2023-03-04T03:33:32;4.20;;;1.30;;
62582;SDS011;48641;51.676;5.808;2023-03-04T03:35:58;2.25;;;1.00;;
62582;SDS011;48641;51.676;5.808;2023-03-04T03:38:24;4.57;;;1.10;;
62582;SDS011;48641;51.676;5.808;2023-03-04T03:40:50;3.55;;;1.30;;
62582;SDS011;48641;51.676;5.808;2023-03-04T03:43:15;4.25;;;1.30;;
62582;SDS011;48641;51.676;5.808;2023-03-04T03:45:41;3.55;;;1.20;;
62582;SDS011;48641;51.676;5.808;2023-03-04T04:29:23;3.38;;;1.27;;
62582;SDS011;48641;51.676;5.808;2023-03-04T04:31:48;2.97;;;1.10;;
62582;SDS011;48641;51.676;5.808;2023-03-04T04:34:14;4.60;;;1.20;;
62582;SDS011;48641;51.676;5.808;2023-03-04T04:36:40;3.13;;;1.02;;
62582;SDS011;48641;51.676;5.808;2023-03-04T04:39:06;2.25;;;1.10;;
62582;SDS011;48641;51.676;5.808;2023-03-04T04:41:35;3.50;;;1.10;;
62582;SDS011;48641;51.676;5.808;2023-03-04T04:44:02;4.38;;;1.10;;
62582;SDS011;48641;51.676;5.808;2023-03-04T04:46:28;2.72;;;1.00;;
62582;SDS011;48641;51.676;5.808;2023-03-04T04:48:54;2.97;;;1.02;;
62582;SDS011;48641;51.676;5.808;2023-03-04T04:51:20;3.95;;;0.90;;
62582;SDS011;48641;51.676;5.808;2023-03-04T04:53:46;4.45;;;1.10;;
62582;SDS011;48641;51.676;5.808;2023-03-04T04:56:17;5.15;;;1.30;;
62582;SDS011;48641;51.676;5.808;2023-03-04T04:58:44;2.50;;;1.00;;
62582;SDS011;48641;51.676;5.808;2023-03-04T05:01:11;3.85;;;1.20;;
62582;SDS011;48641;51.676;5.808;2023-03-04T05:03:37;4.43;;;1.30;;
62582;SDS011;48641;51.676;5.808;2023-03-04T05:06:04;3.60;;;1.27;;
62582;SDS011;48641;51.676;5.808;2023-03-04T05:08:32;4.07;;;1.15;;
62582;SDS011;48641;51.676;5.808;2023-03-04T05:10:58;2.90;;;1.00;;
62582;SDS011;48641;51.676;5.808;2023-03-04T05:13:23;2.15;;;1.00;;
62582;SDS011;48641;51.676;5.808;2023-03-04T05:15:50;3.50;;;1.23;;
62582;SDS011;48641;51.676;5.808;2023-03-04T05:18:17;4.05;;;1.02;;
62582;SDS011;48641;51.676;5.808;2023-03-04T05:20:43;4.65;;;1.40;;
62582;SDS011;48641;51.676;5.808;2023-03-04T05:23:08;2.80;;;1.00;;
62582;SDS011;48641;51.676;5.808;2023-03-04T05:25:34;4.07;;;1.10;;
62582;SDS011;48641;51.676;5.808;2023-03-04T05:28:00;4.28;;;1.15;;
62582;SDS011;48641;51.676;5.808;2023-03-04T05:30:26;3.55;;;1.38;;
62582;SDS011;48641;51.676;5.808;2023-03-04T05:32:52;3.08;;;1.20;;
62582;SDS011;48641;51.676;5.808;2023-03-04T05:35:17;4.32;;;1.38;;
62582;SDS011;48641;51.676;5.808;2023-03-04T05:37:43;1.95;;;1.00;;
62582;SDS011;48641;51.676;5.808;2023-03-04T05:40:09;5.15;;;1.20;;
62582;SDS011;48641;51.676;5.808;2023-03-04T05:42:35;2.30;;;0.98;;
62582;SDS011;48641;51.676;5.808;2023-03-04T05:45:04;4.55;;;1.10;;
62582;SDS011;48641;51.676;5.808;2023-03-04T05:47:32;2.78;;;0.98;;
62582;SDS011;48641;51.676;5.808;2023-03-04T05:49:58;3.53;;;1.20;;
62582;SDS011;48641;51.676;5.808;2023-03-04T05:52:24;3.55;;;1.08;;
62582;SDS011;48641;51.676;5.808;2023-03-04T05:54:49;4.25;;;1.13;;
62582;SDS011;48641;51.676;5.808;2023-03-04T05:57:15;4.35;;;1.38;;
62582;SDS011;48641;51.676;5.808;2023-03-04T05:59:40;2.65;;;1.00;;
62582;SDS011;48641;51.676;5.808;2023-03-04T06:02:06;3.28;;;1.20;;
62582;SDS011;48641;51.676;5.808;2023-03-04T06:04:31;4.80;;;1.20;;
62582;SDS011;48641;51.676;5.808;2023-03-04T06:06:57;2.63;;;0.90;;
62582;SDS011;48641;51.676;5.808;2023-03-04T06:09:23;3.70;;;1.00;;
62582;SDS011;48641;51.676;5.808;2023-03-04T06:11:48;3.38;;;1.00;;
62582;SDS011;48641;51.676;5.808;2023-03-04T06:14:14;2.90;;;1.00;;
62582;SDS011;48641;51.676;5.808;2023-03-04T06:16:39;2.40;;;1.00;;
62582;SDS011;48641;51.676;5.808;2023-03-04T06:19:05;2.78;;;1.00;;
62582;SDS011;48641;51.676;5.808;2023-03-04T06:21:31;2.65;;;1.08;;
62582;SDS011;48641;51.676;5.808;2023-03-04T06:23:56;2.95;;;0.98;;
62582;SDS011;48641;51.676;5.808;2023-03-04T06:26:22;3.97;;;0.90;;
62582;SDS011;48641;51.676;5.808;2023-03-04T06:28:48;4.68;;;1.10;;
62582;SDS011;48641;51.676;5.808;2023-03-04T06:31:13;3.50;;;1.00;;
62582;SDS011;48641;51.676;5.808;2023-03-04T06:33:39;2.70;;;1.10;;
62582;SDS011;48641;51.676;5.808;2023-03-04T06:36:05;3.72;;;1.00;;
62582;SDS011;48641;51.676;5.808;2023-03-04T06:38:31;3.97;;;1.00;;
62582;SDS011;48641;51.676;5.808;2023-03-04T06:41:06;2.87;;;1.00;;
62582;SDS011;48641;51.676;5.808;2023-03-04T06:43:32;2.97;;;0.88;;
62582;SDS011;48641;51.676;5.808;2023-03-04T06:45:58;2.03;;;0.80;;
62582;SDS011;48641;51.676;5.808;2023-03-04T06:48:23;2.28;;;0.85;;
62582;SDS011;48641;51.676;5.808;2023-03-04T06:50:49;1.58;;;0.73;;
62582;SDS011;48641;51.676;5.808;2023-03-04T06:53:15;2.53;;;0.93;;
62582;SDS011;48641;51.676;5.808;2023-03-04T06:55:40;3.45;;;0.88;;
62582;SDS011;48641;51.676;5.808;2023-03-04T06:58:06;3.63;;;0.90;;
62582;SDS011;48641;51.676;5.808;2023-03-04T07:00:31;3.10;;;0.88;;
62582;SDS011;48641;51.676;5.808;2023-03-04T07:02:57;4.00;;;1.00;;
62582;SDS011;48641;51.676;5.808;2023-03-04T07:05:23;2.35;;;0.90;;
62582;SDS011;48641;51.676;5.808;2023-03-04T07:07:49;3.28;;;0.90;;
62582;SDS011;48641;51.676;5.808;2023-03-04T07:10:15;4.75;;;1.38;;
62582;SDS011;48641;51.676;5.808;2023-03-04T07:12:44;3.10;;;1.02;;
62582;SDS011;48641;51.676;5.808;2023-03-04T07:15:09;2.78;;;1.15;;
62582;SDS011;48641;51.676;5.808;2023-03-04T07:17:36;3.38;;;1.02;;
62582;SDS011;48641;51.676;5.808;2023-03-04T07:20:02;3.53;;;1.30;;
62582;SDS011;48641;51.676;5.808;2023-03-04T07:22:28;2.92;;;0.90;;
62582;SDS011;48641;51.676;5.808;2023-03-04T07:24:53;2.42;;;0.80;;
62582;SDS011;48641;51.676;5.808;2023-03-04T09:27:21;5.80;;;1.83;;
62582;SDS011;48641;51.676;5.808;2023-03-04T09:29:47;12.48;;;2.13;;
62582;SDS011;48641;51.676;5.808;2023-03-04T09:32:13;7.63;;;1.83;;
62582;SDS011;48641;51.676;5.808;2023-03-04T09:34:39;8.45;;;1.85;;
62582;SDS011;48641;51.676;5.808;2023-03-04T09:37:05;9.75;;;2.55;;
62582;SDS011;48641;51.676;5.808;2023-03-04T09:39:30;9.13;;;2.20;;
62582;SDS011;48641;51.676;5.808;2023-03-04T09:41:57;9.23;;;2.08;;
62582;SDS011;48641;51.676;5.808;2023-03-04T09:44:30;10.27;;;2.20;;
62582;SDS011;48641;51.676;5.808;2023-03-04T09:47:05;8.15;;;2.00;;
62582;SDS011;48641;51.676;5.808;2023-03-04T09:49:41;6.95;;;3.10;;
62582;SDS011;48641;51.676;5.808;2023-03-04T09:55:18;7.15;;;2.45;;
62582;SDS011;48641;51.676;5.808;2023-03-04T10:01:02;7.30;;;2.28;;
62582;SDS011;48641;51.676;5.808;2023-03-04T10:03:49;6.00;;;1.95;;
62582;SDS011;48641;51.676;5.808;2023-03-04T10:06:17;7.07;;;2.30;;
62582;SDS011;48641;51.676;5.808;2023-03-04T10:11:56;5.75;;;1.90;;
62582;SDS011;48641;51.676;5.808;2023-03-04T10:27:43;5.22;;;1.98;;
62582;SDS011;48641;51.676;5.808;2023-03-04T10:33:12;7.38;;;2.13;;
62582;SDS011;48641;51.676;5.808;2023-03-04T10:35:39;6.13;;;2.10;;
62582;SDS011;48641;51.676;5.808;2023-03-04T10:38:09;5.22;;;2.13;;
62582;SDS011;48641;51.676;5.808;2023-03-04T10:40:38;5.15;;;1.88;;
62582;SDS011;48641;51.676;5.808;2023-03-04T10:43:05;4.85;;;1.90;;
62582;SDS011;48641;51.676;5.808;2023-03-04T10:45:38;5.60;;;1.70;;
62582;SDS011;48641;51.676;5.808;2023-03-04T10:48:04;5.07;;;1.95;;
62582;SDS011;48641;51.676;5.808;2023-03-04T10:50:30;7.03;;;2.00;;
62582;SDS011;48641;51.676;5.808;2023-03-04T10:52:56;6.50;;;2.00;;
62582;SDS011;48641;51.676;5.808;2023-03-04T10:55:23;4.38;;;1.70;;
62582;SDS011;48641;51.676;5.808;2023-03-04T10:57:53;4.97;;;1.80;;
62582;SDS011;48641;51.676;5.808;2023-03-04T11:00:30;6.20;;;1.90;;
62582;SDS011;48641;51.676;5.808;2023-03-04T11:03:22;5.95;;;2.10;;
62582;SDS011;48641;51.676;5.808;2023-03-04T11:05:50;8.00;;;2.10;;
62582;SDS011;48641;51.676;5.808;2023-03-04T11:08:18;5.22;;;1.80;;
62582;SDS011;48641;51.676;5.808;2023-03-04T11:10:46;3.97;;;1.60;;
62582;SDS011;48641;51.676;5.808;2023-03-04T11:13:16;5.32;;;2.00;;
62582;SDS011;48641;51.676;5.808;2023-03-04T11:15:57;4.63;;;1.90;;
62582;SDS011;48641;51.676;5.808;2023-03-04T11:18:40;5.05;;;1.67;;
62582;SDS011;48641;51.676;5.808;2023-03-04T11:21:12;4.05;;;1.63;;
62582;SDS011;48641;51.676;5.808;2023-03-04T11:26:47;5.55;;;1.77;;
62582;SDS011;48641;51.676;5.808;2023-03-04T11:29:20;4.97;;;1.60;;
62582;SDS011;48641;51.676;5.808;2023-03-04T11:34:30;3.72;;;1.63;;
62582;SDS011;48641;51.676;5.808;2023-03-04T11:37:11;5.13;;;2.10;;
62582;SDS011;48641;51.676;5.808;2023-03-04T11:44:48;3.42;;;1.77;;
62582;SDS011;48641;51.676;5.808;2023-03-04T11:52:28;3.70;;;1.65;;
62582;SDS011;48641;51.676;5.808;2023-03-04T12:09:48;14.00;;;2.00;;
62582;SDS011;48641;51.676;5.808;2023-03-04T12:18:13;4.72;;;1.80;;
62582;SDS011;48641;51.676;5.808;2023-03-04T12:21:00;4.05;;;1.63;;
62582;SDS011;48641;51.676;5.808;2023-03-04T12:36:42;4.25;;;1.63;;
62582;SDS011;48641;51.676;5.808;2023-03-04T12:39:40;6.68;;;2.70;;
62582;SDS011;48641;51.676;5.808;2023-03-04T12:42:18;4.72;;;1.90;;
62582;SDS011;48641;51.676;5.808;2023-03-04T12:45:14;3.92;;;1.98;;
62582;SDS011;48641;51.676;5.808;2023-03-04T12:47:49;4.65;;;2.05;;
62582;SDS011;48641;51.676;5.808;2023-03-04T12:53:42;7.78;;;2.42;;
62582;SDS011;48641;51.676;5.808;2023-03-04T12:56:49;9.45;;;3.70;;
62582;SDS011;48641;51.676;5.808;2023-03-04T12:59:22;9.68;;;2.55;;
62582;SDS011;48641;51.676;5.808;2023-03-04T13:07:20;5.85;;;2.40;;
62582;SDS011;48641;51.676;5.808;2023-03-04T14:26:40;11.43;;;3.13;;
62582;SDS011;48641;51.676;5.808;2023-03-04T14:31:54;16.50;;;3.13;;
62582;SDS011;48641;51.676;5.808;2023-03-04T14:34:25;18.80;;;3.60;;
62582;SDS011;48641;51.676;5.808;2023-03-04T14:36:59;12.52;;;3.20;;
62582;SDS011;48641;51.676;5.808;2023-03-04T14:39:26;18.80;;;3.95;;
62582;SDS011;48641;51.676;5.808;2023-03-04T14:41:55;12.48;;;3.35;;
62582;SDS011;48641;51.676;5.808;2023-03-04T14:47:32;12.55;;;3.10;;
62582;SDS011;48641;51.676;5.808;2023-03-04T16:31:22;14.73;;;7.30;;
62582;SDS011;48641;51.676;5.808;2023-03-04T16:33:47;15.30;;;7.22;;
62582;SDS011;48641;51.676;5.808;2023-03-04T16:38:40;16.45;;;7.88;;
62582;SDS011;48641;51.676;5.808;2023-03-04T16:41:08;22.60;;;8.50;;
62582;SDS011;48641;51.676;5.808;2023-03-04T16:43:37;16.90;;;7.30;;
62582;SDS011;48641;51.676;5.808;2023-03-04T16:46:06;15.02;;;7.15;;
62582;SDS011;48641;51.676;5.808;2023-03-04T16:48:32;18.38;;;7.60;;
62582;SDS011;48641;51.676;5.808;2023-03-04T16:50:59;15.77;;;7.00;;
62582;SDS011;48641;51.676;5.808;2023-03-04T16:53:32;17.80;;;7.22;;
62582;SDS011;48641;51.676;5.808;2023-03-04T16:56:05;15.27;;;6.88;;
62582;SDS011;48641;51.676;5.808;2023-03-04T16:58:36;13.98;;;6.45;;
62582;SDS011;48641;51.676;5.808;2023-03-04T17:01:06;13.93;;;6.40;;
62582;SDS011;48641;51.676;5.808;2023-03-04T17:06:00;15.40;;;6.50;;
62582;SDS011;48641;51.676;5.808;2023-03-04T17:08:26;15.50;;;6.25;;
62582;SDS011;48641;51.676;5.808;2023-03-04T17:10:51;15.07;;;6.15;;
62582;SDS011;48641;51.676;5.808;2023-03-04T17:13:17;15.27;;;5.80;;
62582;SDS011;48641;51.676;5.808;2023-03-04T17:15:43;13.77;;;5.72;;
62582;SDS011;48641;51.676;5.808;2023-03-04T17:18:10;14.77;;;5.70;;
62582;SDS011;48641;51.676;5.808;2023-03-04T17:20:36;13.25;;;5.65;;
62582;SDS011;48641;51.676;5.808;2023-03-04T17:23:02;12.27;;;5.60;;
62582;SDS011;48641;51.676;5.808;2023-03-04T17:25:27;12.40;;;5.28;;
62582;SDS011;48641;51.676;5.808;2023-03-04T17:27:53;13.60;;;5.82;;
62582;SDS011;48641;51.676;5.808;2023-03-04T17:30:19;12.52;;;5.55;;
62582;SDS011;48641;51.676;5.808;2023-03-04T17:32:44;12.55;;;5.32;;
62582;SDS011;48641;51.676;5.808;2023-03-04T17:35:10;14.63;;;5.40;;
62582;SDS011;48641;51.676;5.808;2023-03-04T17:37:36;12.13;;;5.43;;
62582;SDS011;48641;51.676;5.808;2023-03-04T17:40:03;12.07;;;5.63;;
62582;SDS011;48641;51.676;5.808;2023-03-04T17:42:30;11.53;;;5.47;;
62582;SDS011;48641;51.676;5.808;2023-03-04T17:44:56;10.57;;;4.40;;
62582;SDS011;48641;51.676;5.808;2023-03-04T17:47:21;13.13;;;5.30;;
62582;SDS011;48641;51.676;5.808;2023-03-04T17:49:47;14.65;;;5.53;;
62582;SDS011;48641;51.676;5.808;2023-03-04T17:52:12;13.07;;;5.47;;
62582;SDS011;48641;51.676;5.808;2023-03-04T17:54:38;15.55;;;6.15;;
62582;SDS011;48641;51.676;5.808;2023-03-04T17:57:10;16.45;;;5.95;;
62582;SDS011;48641;51.676;5.808;2023-03-04T17:59:36;10.48;;;4.90;;
62582;SDS011;48641;51.676;5.808;2023-03-04T18:02:03;10.52;;;4.68;;
62582;SDS011;48641;51.676;5.808;2023-03-04T18:04:29;11.00;;;4.93;;
62582;SDS011;48641;51.676;5.808;2023-03-04T18:06:55;12.30;;;5.00;;
62582;SDS011;48641;51.676;5.808;2023-03-04T18:09:20;12.00;;;4.70;;
62582;SDS011;48641;51.676;5.808;2023-03-04T18:11:46;11.02;;;5.10;;
62582;SDS011;48641;51.676;5.808;2023-03-04T18:14:12;13.02;;;5.18;;
62582;SDS011;48641;51.676;5.808;2023-03-04T18:16:38;11.23;;;4.95;;
62582;SDS011;48641;51.676;5.808;2023-03-04T18:19:04;9.07;;;4.43;;
62582;SDS011;48641;51.676;5.808;2023-03-04T18:21:30;16.17;;;5.15;;
62582;SDS011;48641;51.676;5.808;2023-03-04T18:23:56;11.40;;;4.47;;
62582;SDS011;48641;51.676;5.808;2023-03-04T18:26:23;10.75;;;4.85;;
62582;SDS011;48641;51.676;5.808;2023-03-04T18:28:49;10.48;;;4.53;;
62582;SDS011;48641;51.676;5.808;2023-03-04T18:31:19;10.90;;;4.47;;
62582;SDS011;48641;51.676;5.808;2023-03-04T18:33:46;10.35;;;4.05;;
62582;SDS011;48641;51.676;5.808;2023-03-04T18:36:12;11.25;;;4.53;;
62582;SDS011;48641;51.676;5.808;2023-03-04T18:38:38;9.63;;;4.43;;
62582;SDS011;48641;51.676;5.808;2023-03-04T18:41:09;10.25;;;4.63;;
62582;SDS011;48641;51.676;5.808;2023-03-04T18:43:36;8.82;;;4.15;;
62582;SDS011;48641;51.676;5.808;2023-03-04T18:46:03;10.68;;;4.22;;
62582;SDS011;48641;51.676;5.808;2023-03-04T18:48:30;10.75;;;4.40;;
62582;SDS011;48641;51.676;5.808;2023-03-04T18:50:58;11.85;;;4.53;;
62582;SDS011;48641;51.676;5.808;2023-03-04T18:53:24;11.85;;;4.22;;
62582;SDS011;48641;51.676;5.808;2023-03-04T18:55:54;9.73;;;3.80;;
62582;SDS011;48641;51.676;5.808;2023-03-04T18:58:25;9.43;;;4.07;;
62582;SDS011;48641;51.676;5.808;2023-03-04T19:00:52;9.38;;;3.63;;
62582;SDS011;48641;51.676;5.808;2023-03-04T19:03:18;9.25;;;3.75;;
62582;SDS011;48641;51.676;5.808;2023-03-04T19:05:45;9.70;;;3.60;;
62582;SDS011;48641;51.676;5.808;2023-03-04T19:08:10;9.70;;;3.65;;
62582;SDS011;48641;51.676;5.808;2023-03-04T19:10:36;11.43;;;3.88;;
62582;SDS011;48641;51.676;5.808;2023-03-04T19:13:01;9.50;;;4.30;;
62582;SDS011;48641;51.676;5.808;2023-03-04T19:15:28;10.63;;;4.15;;
62582;SDS011;48641;51.676;5.808;2023-03-04T19:17:53;9.65;;;3.80;;
62582;SDS011;48641;51.676;5.808;2023-03-04T19:20:19;10.13;;;3.47;;
62582;SDS011;48641;51.676;5.808;2023-03-04T19:22:45;8.88;;;3.72;;
62582;SDS011;48641;51.676;5.808;2023-03-04T19:25:10;10.88;;;3.65;;
62582;SDS011;48641;51.676;5.808;2023-03-04T19:27:36;9.10;;;3.53;;
62582;SDS011;48641;51.676;5.808;2023-03-04T19:30:03;7.82;;;3.67;;
62582;SDS011;48641;51.676;5.808;2023-03-04T19:32:29;7.30;;;3.15;;
62582;SDS011;48641;51.676;5.808;2023-03-04T19:34:55;9.10;;;3.92;;
62582;SDS011;48641;51.676;5.808;2023-03-04T19:37:21;8.50;;;3.38;;
62582;SDS011;48641;51.676;5.808;2023-03-04T19:39:46;8.65;;;3.65;;
62582;SDS011;48641;51.676;5.808;2023-03-04T19:42:15;8.20;;;3.13;;
62582;SDS011;48641;51.676;5.808;2023-03-04T19:44:41;7.70;;;3.30;;
62582;SDS011;48641;51.676;5.808;2023-03-04T19:47:06;8.75;;;3.00;;
62582;SDS011;48641;51.676;5.808;2023-03-04T19:49:32;9.68;;;3.30;;
62582;SDS011;48641;51.676;5.808;2023-03-04T19:51:59;9.02;;;3.08;;
62582;SDS011;48641;51.676;5.808;2023-03-04T19:54:24;7.82;;;3.53;;
62582;SDS011;48641;51.676;5.808;2023-03-04T19:56:51;7.25;;;2.85;;
62582;SDS011;48641;51.676;5.808;2023-03-04T19:59:17;8.32;;;3.20;;
62582;SDS011;48641;51.676;5.808;2023-03-04T20:01:43;7.80;;;2.97;;
62582;SDS011;48641;51.676;5.808;2023-03-04T20:04:13;7.63;;;2.80;;
62582;SDS011;48641;51.676;5.808;2023-03-04T20:06:41;6.15;;;2.88;;
62582;SDS011;48641;51.676;5.808;2023-03-04T20:09:09;6.47;;;2.47;;
62582;SDS011;48641;51.676;5.808;2023-03-04T20:11:35;9.95;;;3.15;;
62582;SDS011;48641;51.676;5.808;2023-03-04T20:14:01;7.60;;;3.20;;
62582;SDS011;48641;51.676;5.808;2023-03-04T20:16:28;7.90;;;3.33;;
62582;SDS011;48641;51.676;5.808;2023-03-04T20:18:55;8.20;;;3.00;;
62582;SDS011;48641;51.676;5.808;2023-03-04T20:21:22;6.65;;;3.13;;
62582;SDS011;48641;51.676;5.808;2023-03-04T20:23:48;9.18;;;2.85;;
62582;SDS011;48641;51.676;5.808;2023-03-04T20:26:13;8.25;;;2.88;;
62582;SDS011;48641;51.676;5.808;2023-03-04T20:28:39;7.95;;;2.75;;
62582;SDS011;48641;51.676;5.808;2023-03-04T20:31:21;7.68;;;2.55;;
62582;SDS011;48641;51.676;5.808;2023-03-04T20:33:51;7.80;;;2.53;;
62582;SDS011;48641;51.676;5.808;2023-03-04T20:36:18;9.27;;;3.00;;
62582;SDS011;48641;51.676;5.808;2023-03-04T20:38:47;7.20;;;2.72;;
62582;SDS011;48641;51.676;5.808;2023-03-04T20:41:16;7.57;;;3.00;;
62582;SDS011;48641;51.676;5.808;2023-03-04T20:43:41;6.93;;;2.90;;
62582;SDS011;48641;51.676;5.808;2023-03-04T20:48:59;7.13;;;2.95;;
62582;SDS011;48641;51.676;5.808;2023-03-04T20:51:27;8.45;;;3.00;;
62582;SDS011;48641;51.676;5.808;2023-03-04T20:53:54;7.32;;;2.55;;
62582;SDS011;48641;51.676;5.808;2023-03-04T20:56:20;10.77;;;6.28;;
62582;SDS011;48641;51.676;5.808;2023-03-04T20:58:46;12.18;;;5.60;;
62582;SDS011;48641;51.676;5.808;2023-03-04T21:01:12;8.50;;;3.78;;
62582;SDS011;48641;51.676;5.808;2023-03-04T21:03:38;8.80;;;3.85;;
62582;SDS011;48641;51.676;5.808;2023-03-04T21:06:05;10.13;;;3.83;;
62582;SDS011;48641;51.676;5.808;2023-03-04T21:08:32;8.27;;;3.47;;
62582;SDS011;48641;51.676;5.808;2023-03-04T21:10:58;9.68;;;3.90;;
62582;SDS011;48641;51.676;5.808;2023-03-04T21:13:23;10.65;;;4.22;;
62582;SDS011;48641;51.676;5.808;2023-03-04T21:15:54;8.68;;;3.97;;
62582;SDS011;48641;51.676;5.808;2023-03-04T21:18:20;8.43;;;3.90;;
62582;SDS011;48641;51.676;5.808;2023-03-04T21:20:46;8.10;;;3.85;;
62582;SDS011;48641;51.676;5.808;2023-03-04T21:23:13;9.02;;;3.60;;
62582;SDS011;48641;51.676;5.808;2023-03-04T21:25:38;7.82;;;3.60;;
62582;SDS011;48641;51.676;5.808;2023-03-04T21:28:05;8.00;;;3.42;;
62582;SDS011;48641;51.676;5.808;2023-03-04T21:30:31;9.95;;;4.20;;
62582;SDS011;48641;51.676;5.808;2023-03-04T21:32:57;8.32;;;3.58;;
62582;SDS011;48641;51.676;5.808;2023-03-04T21:35:24;7.78;;;3.45;;
62582;SDS011;48641;51.676;5.808;2023-03-04T21:37:49;8.60;;;3.70;;
62582;SDS011;48641;51.676;5.808;2023-03-04T21:40:15;8.45;;;3.70;;
62582;SDS011;48641;51.676;5.808;2023-03-04T21:42:41;9.05;;;3.60;;
62582;SDS011;48641;51.676;5.808;2023-03-04T21:45:08;8.68;;;3.90;;
62582;SDS011;48641;51.676;5.808;2023-03-04T21:47:34;7.85;;;3.67;;
62582;SDS011;48641;51.676;5.808;2023-03-04T21:50:00;7.25;;;3.22;;
62582;SDS011;48641;51.676;5.808;2023-03-04T21:52:26;9.18;;;3.38;;
62582;SDS011;48641;51.676;5.808;2023-03-04T21:54:52;7.28;;;3.42;;
62582;SDS011;48641;51.676;5.808;2023-03-04T21:57:19;7.50;;;3.30;;
62582;SDS011;48641;51.676;5.808;2023-03-04T21:59:45;8.82;;;3.38;;
62582;SDS011;48641;51.676;5.808;2023-03-04T22:02:15;10.40;;;4.40;;
62582;SDS011;48641;51.676;5.808;2023-03-04T22:04:45;9.20;;;3.90;;
62582;SDS011;48641;51.676;5.808;2023-03-04T22:07:12;9.60;;;4.30;;
62582;SDS011;48641;51.676;5.808;2023-03-04T22:09:38;8.27;;;3.97;;
62582;SDS011;48641;51.676;5.808;2023-03-04T22:12:03;7.82;;;3.53;;
62582;SDS011;48641;51.676;5.808;2023-03-04T22:14:29;7.82;;;3.40;;
62582;SDS011;48641;51.676;5.808;2023-03-04T22:16:56;8.00;;;3.53;;
62582;SDS011;48641;51.676;5.808;2023-03-04T22:19:22;7.97;;;3.65;;
62582;SDS011;48641;51.676;5.808;2023-03-04T22:21:49;7.22;;;3.80;;
62582;SDS011;48641;51.676;5.808;2023-03-04T22:24:15;8.68;;;3.80;;
62582;SDS011;48641;51.676;5.808;2023-03-04T22:26:41;8.40;;;3.80;;
62582;SDS011;48641;51.676;5.808;2023-03-04T22:29:06;7.68;;;3.75;;
62582;SDS011;48641;51.676;5.808;2023-03-04T22:31:33;9.10;;;3.70;;
62582;SDS011;48641;51.676;5.808;2023-03-04T22:34:04;7.67;;;3.93;;
62582;SDS011;48641;51.676;5.808;2023-03-04T22:36:33;10.70;;;4.47;;
62582;SDS011;48641;51.676;5.808;2023-03-04T22:39:00;7.95;;;3.90;;
62582;SDS011;48641;51.676;5.808;2023-03-04T22:41:27;9.27;;;4.10;;
62582;SDS011;48641;51.676;5.808;2023-03-04T22:43:53;8.48;;;3.70;;
62582;SDS011;48641;51.676;5.808;2023-03-04T22:46:23;8.20;;;4.00;;
62582;SDS011;48641;51.676;5.808;2023-03-04T22:48:57;8.10;;;4.00;;
62582;SDS011;48641;51.676;5.808;2023-03-04T22:51:24;7.32;;;3.80;;
62582;SDS011;48641;51.676;5.808;2023-03-04T22:53:51;8.52;;;4.13;;
62582;SDS011;48641;51.676;5.808;2023-03-04T22:56:17;8.80;;;3.90;;
62582;SDS011;48641;51.676;5.808;2023-03-04T22:58:43;9.10;;;3.97;;
62582;SDS011;48641;51.676;5.808;2023-03-04T23:01:10;9.35;;;4.00;;
62582;SDS011;48641;51.676;5.808;2023-03-04T23:03:37;8.80;;;4.07;;
62582;SDS011;48641;51.676;5.808;2023-03-04T23:06:09;8.90;;;4.32;;
62582;SDS011;48641;51.676;5.808;2023-03-04T23:08:38;9.13;;;4.30;;
62582;SDS011;48641;51.676;5.808;2023-03-04T23:11:09;8.75;;;4.05;;
62582;SDS011;48641;51.676;5.808;2023-03-04T23:13:36;7.80;;;4.15;;
